KLAS/LAS METAR and TAF weather

Enter ICAO airport designator
Station Type Date Time Source
KLAS METAR 2018/12/13 08:56 UTC NOAA

KLAS 130856Z 00000KT 10SM BKN250 09/M09 A3029 RMK AO2 SLP250 T00891089 51009


Station Type Date Time Source
KLAS Decoded METAR 2018/12/13 08:56 UTC NOAA

MCCARRAN INTERNATIONAL AIRPORT , NV, United States (KLAS) 36-07N 115-16W 636M
Dec 13, 2018 - 03:56 AM EST / 2018.12.13 0856 UTC
Wind: Calm:0
Visibility: 10 mile(s):0
Sky conditions: mostly cloudy
Temperature: 48.0 F (8.9 C)
Dew Point: 16.0 F (-8.9 C)
Relative Humidity: 27%
Pressure (altimeter): 30.29 in. Hg (1025 hPa)
Pressure tendency: 0.03 inches (0.9 hPa) higher than three hours ago
ob: KLAS 130856Z 00000KT 10SM BKN250 09/M09 A3029 RMK AO2 SLP250 T00891089 51009
cycle: 9

Station Type Date Time Source
KLAS TAF 2018/12/13 09:48 UTC NOAA

TAF
AMD KLAS 130847Z 1309/1412 VRB06KT P6SM SCT250
FM140300 20006KT P6SM FEW200


Example: see airport list